createdAt,value
2022-08-10T00:00:34.802Z,68.20
2022-08-10T00:03:02.946Z,68.10
2022-08-10T00:05:43.522Z,68.50
2022-08-10T00:08:20.678Z,68.70
2022-08-10T00:10:52.220Z,68.90
2022-08-10T00:13:18.923Z,69.20
2022-08-10T00:15:53.755Z,69.30
2022-08-10T00:18:35.928Z,69.50
2022-08-10T00:21:05.564Z,69.60
2022-08-10T00:23:32.889Z,70.20
2022-08-10T00:25:59.780Z,70.00
2022-08-10T00:28:26.515Z,70.20
2022-08-10T00:30:53.445Z,70.40
2022-08-10T00:33:20.873Z,70.60
2022-08-10T00:35:47.693Z,71.00
2022-08-10T00:38:14.391Z,71.00
2022-08-10T00:40:41.130Z,71.20
2022-08-10T00:43:08.313Z,71.30
2022-08-10T00:45:36.057Z,71.60
2022-08-10T00:48:03.527Z,71.70
2022-08-10T00:50:30.709Z,71.70
2022-08-10T00:52:57.825Z,71.90
2022-08-10T00:55:25.016Z,72.00
2022-08-10T00:57:55.296Z,72.00
2022-08-10T01:00:23.959Z,72.30
2022-08-10T01:02:51.143Z,72.40
2022-08-10T01:05:20.064Z,72.50
2022-08-10T01:08:08.097Z,72.70
2022-08-10T01:10:40.751Z,73.50
2022-08-10T01:13:22.114Z,73.00
2022-08-10T01:16:05.674Z,73.80
2022-08-10T01:18:37.767Z,74.50
2022-08-10T01:21:38.449Z,73.90
2022-08-10T01:24:34.617Z,74.50
2022-08-10T01:27:27.487Z,74.70
2022-08-10T01:30:01.912Z,74.80
2022-08-10T01:32:48.353Z,74.90
2022-08-10T01:35:40.045Z,75.60
2022-08-10T01:38:14.497Z,75.80
2022-08-10T01:40:53.585Z,75.80
2022-08-10T01:43:20.976Z,76.20
2022-08-10T01:45:55.197Z,75.60
2022-08-10T01:48:30.581Z,76.30
2022-08-10T01:51:20.815Z,76.60
2022-08-10T01:54:00.210Z,77.20
2022-08-10T01:56:30.356Z,76.70
2022-08-10T01:59:01.088Z,77.00
2022-08-10T02:01:32.339Z,77.50
2022-08-10T02:04:06.243Z,77.20
2022-08-10T02:06:38.308Z,77.50
2022-08-10T02:09:07.657Z,77.70
2022-08-10T02:12:05.251Z,78.00
2022-08-10T02:14:33.279Z,78.20
2022-08-10T02:17:08.319Z,77.90
2022-08-10T02:19:38.471Z,78.20
2022-08-10T02:22:35.254Z,78.60
2022-08-10T02:24:55.903Z,78.20
2022-08-10T02:27:24.274Z,78.70
2022-08-10T02:29:53.461Z,78.90
2022-08-10T02:32:36.189Z,79.50
2022-08-10T02:35:08.001Z,80.00
2022-08-10T02:37:38.861Z,79.70
2022-08-10T02:40:06.289Z,79.80
2022-08-10T02:45:23.854Z,79.40
2022-08-10T02:45:54.785Z,80.30
2022-08-10T02:48:27.808Z,80.20
2022-08-10T02:51:01.672Z,80.50
2022-08-10T02:53:57.343Z,80.60
2022-08-10T02:56:40.337Z,81.70
2022-08-10T02:59:11.704Z,81.20
2022-08-10T03:01:43.296Z,81.00
2022-08-10T03:04:56.251Z,81.40
2022-08-10T03:07:14.993Z,82.30
2022-08-10T03:09:42.975Z,81.70
2022-08-10T03:12:36.327Z,81.80
2022-08-10T03:15:00.707Z,81.90
2022-08-10T03:17:29.596Z,81.70
2022-08-10T03:20:34.224Z,82.10
2022-08-10T03:22:46.209Z,82.40
2022-08-10T03:25:13.691Z,81.70
2022-08-10T03:27:42.589Z,82.20
2022-08-10T03:30:31.868Z,82.30
2022-08-10T03:32:57.982Z,82.20
2022-08-10T03:35:26.061Z,82.30
2022-08-10T03:37:59.092Z,83.10
2022-08-10T03:40:46.419Z,82.70
2022-08-10T03:43:20.375Z,83.00
2022-08-10T03:45:55.882Z,83.70
2022-08-10T03:48:32.212Z,82.70
2022-08-10T03:51:13.676Z,82.80
2022-08-10T03:54:02.819Z,83.00
2022-08-10T03:56:32.025Z,83.00
2022-08-10T03:59:00.016Z,83.10
2022-08-10T04:02:45.243Z,83.00
2022-08-10T04:04:19.214Z,82.90
2022-08-10T04:06:51.486Z,82.80
2022-08-10T04:09:23.186Z,82.80
2022-08-10T04:11:49.934Z,82.80
2022-08-10T04:14:47.411Z,83.20
2022-08-10T04:17:03.462Z,83.40
2022-08-10T04:19:37.509Z,83.70
2022-08-10T04:22:12.815Z,84.20
2022-08-10T04:24:40.386Z,83.40
2022-08-10T04:27:07.229Z,83.40
2022-08-10T04:29:33.957Z,83.80
2022-08-10T04:32:03.289Z,84.20
2022-08-10T04:34:34.114Z,84.60
2022-08-10T04:37:08.937Z,84.60
2022-08-10T04:39:36.407Z,85.30
2022-08-10T04:42:03.924Z,85.10
2022-08-10T04:44:32.237Z,85.20
2022-08-10T04:46:59.238Z,85.60
2022-08-10T04:49:55.276Z,86.00
2022-08-10T04:52:13.909Z,86.50
2022-08-10T04:54:40.566Z,86.30
2022-08-10T04:57:09.030Z,86.80
2022-08-10T04:59:35.914Z,87.20
2022-08-10T05:02:21.876Z,87.20
2022-08-10T05:04:49.621Z,87.60
2022-08-10T05:07:18.560Z,87.30
2022-08-10T05:10:02.511Z,87.50
2022-08-10T05:12:37.452Z,88.10
2022-08-10T05:15:06.446Z,87.60
2022-08-10T05:17:34.503Z,87.30
2022-08-10T05:20:06.403Z,86.90
2022-08-10T05:22:39.522Z,86.90
2022-08-10T05:25:09.181Z,87.10
2022-08-10T05:27:36.046Z,86.80
2022-08-10T05:30:04.293Z,86.70
2022-08-10T05:32:57.571Z,86.70
2022-08-10T05:35:21.988Z,86.80
2022-08-10T05:38:13.136Z,86.10
2022-08-10T05:40:39.507Z,86.20
2022-08-10T05:43:07.171Z,85.90
2022-08-10T05:45:34.041Z,85.70
2022-08-10T05:48:55.715Z,85.60
2022-08-10T05:51:09.407Z,85.40
2022-08-10T05:54:02.288Z,85.60
2022-08-10T05:56:25.963Z,85.50
2022-08-10T05:58:52.816Z,85.60
2022-08-10T06:01:24.962Z,85.70
2022-08-10T06:03:58.500Z,86.00
2022-08-10T06:06:27.558Z,86.10
2022-08-10T06:08:55.316Z,85.90
2022-08-10T06:12:26.119Z,85.80
2022-08-10T06:14:29.385Z,85.80
2022-08-10T06:16:58.366Z,85.70
2022-08-10T06:19:26.111Z,85.60
2022-08-10T06:22:00.857Z,85.60
2022-08-10T06:24:33.837Z,85.40
2022-08-10T06:27:00.529Z,85.50
2022-08-10T06:29:31.922Z,85.30
2022-08-10T06:32:00.986Z,85.60
2022-08-10T06:34:35.355Z,85.50
2022-08-10T06:37:04.335Z,85.40
2022-08-10T06:39:34.478Z,85.50
2022-08-10T06:42:24.724Z,85.90
2022-08-10T06:45:05.939Z,86.60
2022-08-10T06:47:43.758Z,86.70
2022-08-10T06:50:56.123Z,86.70
2022-08-10T06:53:23.197Z,86.60
2022-08-10T06:55:57.861Z,87.00
2022-08-10T06:58:28.985Z,85.10
2022-08-10T07:00:56.900Z,85.00
2022-08-10T07:03:31.451Z,84.30
2022-08-10T07:05:59.663Z,82.40
2022-08-10T07:08:31.260Z,82.00
2022-08-10T07:10:58.320Z,80.60
2022-08-10T07:14:15.598Z,79.40
2022-08-10T07:16:14.366Z,77.00
2022-08-10T07:18:43.423Z,75.40
2022-08-10T07:21:12.192Z,73.50
2022-08-10T07:23:57.203Z,71.50
2022-08-10T07:26:28.736Z,69.90
2022-08-10T07:28:56.814Z,69.10
2022-08-10T07:31:54.986Z,68.20
2022-08-10T07:34:21.820Z,67.50
2022-08-10T07:37:02.745Z,66.00
2022-08-10T07:39:57.831Z,65.00
2022-08-10T07:42:22.026Z,64.50
2022-08-10T07:44:50.514Z,63.20
2022-08-10T07:47:53.098Z,63.00
2022-08-10T07:50:13.768Z,60.90
2022-08-10T07:52:42.418Z,59.90
2022-08-10T07:55:14.296Z,59.70
2022-08-10T07:57:43.668Z,58.80
2022-08-10T08:00:12.004Z,57.80
2022-08-10T08:02:50.736Z,58.00
2022-08-10T08:05:57.561Z,56.40
2022-08-10T08:08:09.209Z,56.90
2022-08-10T08:10:38.081Z,56.60
2022-08-10T08:13:05.620Z,56.00
2022-08-10T08:16:19.249Z,55.10
2022-08-10T08:18:25.373Z,55.10
2022-08-10T08:20:54.212Z,54.10
2022-08-10T08:24:08.455Z,53.50
2022-08-10T08:26:11.376Z,52.80
2022-08-10T08:28:39.110Z,51.80
2022-08-10T08:31:06.849Z,51.90
2022-08-10T08:33:42.409Z,51.30
2022-08-10T08:36:10.756Z,50.10
2022-08-10T08:38:38.050Z,49.30
2022-08-10T08:41:17.174Z,48.80
2022-08-10T08:44:34.857Z,46.10
2022-08-10T08:47:51.596Z,46.50
2022-08-10T08:50:10.247Z,45.40
2022-08-10T08:53:21.130Z,47.00
2022-08-10T08:56:06.220Z,45.70
2022-08-10T08:59:01.618Z,45.60
2022-08-10T09:01:49.882Z,44.70
2022-08-10T09:04:32.282Z,44.90
2022-08-10T09:07:39.187Z,44.50
2022-08-10T09:10:25.114Z,44.40
2022-08-10T09:13:04.620Z,43.40
2022-08-10T09:16:00.447Z,43.10
2022-08-10T09:18:47.943Z,42.20
2022-08-10T09:22:13.095Z,41.90
2022-08-10T09:24:48.626Z,40.60
2022-08-10T09:27:35.253Z,41.30
2022-08-10T09:30:08.493Z,40.10
2022-08-10T09:36:13.292Z,40.60
2022-08-10T09:36:22.448Z,40.10
2022-08-10T09:39:01.670Z,40.00
2022-08-10T09:41:51.744Z,39.00
2022-08-10T09:44:28.115Z,40.30
2022-08-10T09:47:58.706Z,39.80
2022-08-10T09:50:22.822Z,39.50
2022-08-10T09:53:08.544Z,39.20
2022-08-10T09:56:17.749Z,38.90
2022-08-10T09:59:56.721Z,39.30
2022-08-10T10:02:18.653Z,38.60
2022-08-10T10:05:02.619Z,39.00
2022-08-10T10:07:30.598Z,38.50
2022-08-10T10:10:07.565Z,39.10
2022-08-10T10:12:44.999Z,38.70
2022-08-10T10:15:25.191Z,37.90
2022-08-10T10:18:07.825Z,38.90
2022-08-10T10:20:55.867Z,38.00
2022-08-10T10:24:22.433Z,37.50
2022-08-10T10:26:53.641Z,38.00
2022-08-10T10:29:58.463Z,37.40
2022-08-10T10:32:39.173Z,36.70
2022-08-10T10:35:19.345Z,36.70
2022-08-10T10:38:01.512Z,36.40
2022-08-10T10:40:39.148Z,36.90
2022-08-10T10:43:20.194Z,35.70
2022-08-10T10:46:05.772Z,35.80
2022-08-10T10:48:47.527Z,35.40
2022-08-10T10:51:25.429Z,34.90
2022-08-10T10:54:13.187Z,35.60
2022-08-10T10:56:58.191Z,34.90
2022-08-10T10:59:55.666Z,34.50
2022-08-10T11:02:38.982Z,34.60
2022-08-10T11:05:08.910Z,34.80
2022-08-10T11:08:00.222Z,35.10
2022-08-10T11:10:38.570Z,34.90
2022-08-10T11:14:27.236Z,35.30
2022-08-10T11:16:57.542Z,35.70
2022-08-10T11:20:14.482Z,35.50
2022-08-10T11:22:57.789Z,36.20
2022-08-10T11:25:40.926Z,36.10
2022-08-10T11:28:21.792Z,36.40
2022-08-10T11:31:16.224Z,36.60
2022-08-10T11:34:48.806Z,37.20
2022-08-10T11:37:17.345Z,37.30
2022-08-10T11:40:15.273Z,37.50
2022-08-10T11:43:13.100Z,37.00
2022-08-10T11:45:52.515Z,37.50
2022-08-10T11:48:54.360Z,37.40
2022-08-10T11:51:38.886Z,37.60
2022-08-10T11:54:10.143Z,37.40
2022-08-10T11:56:50.388Z,37.80
2022-08-10T11:59:37.050Z,37.20
2022-08-10T12:02:09.088Z,37.90
2022-08-10T12:04:39.272Z,38.00
2022-08-10T12:10:05.758Z,38.00
2022-08-10T12:10:07.803Z,38.10
2022-08-10T12:12:52.763Z,38.40
2022-08-10T12:15:40.477Z,38.10
2022-08-10T12:18:24.587Z,37.90
2022-08-10T12:20:58.771Z,38.40
2022-08-10T12:23:46.433Z,38.30
2022-08-10T12:26:18.949Z,37.90
2022-08-10T12:28:55.896Z,38.30
2022-08-10T12:31:42.989Z,38.10
2022-08-10T12:34:33.746Z,38.30
2022-08-10T12:37:12.870Z,38.70
2022-08-10T12:39:50.700Z,38.20
2022-08-10T12:42:39.066Z,38.70
2022-08-10T12:45:34.966Z,38.90
2022-08-10T12:48:19.675Z,39.00
2022-08-10T12:50:58.963Z,38.90
2022-08-10T12:53:48.727Z,38.50
2022-08-10T12:56:28.042Z,39.40
2022-08-10T12:58:59.557Z,38.90
2022-08-10T13:02:09.475Z,38.90
2022-08-10T13:04:30.108Z,38.70
2022-08-10T13:06:59.997Z,38.60
2022-08-10T13:09:28.673Z,38.80
2022-08-10T13:12:37.912Z,38.90
2022-08-10T13:15:45.127Z,38.30
2022-08-10T13:18:18.589Z,38.00
2022-08-10T13:20:51.437Z,38.00
2022-08-10T13:23:21.922Z,38.30
2022-08-10T13:25:51.675Z,38.80
2022-08-10T13:28:37.643Z,38.80
2022-08-10T13:31:16.945Z,39.20
2022-08-10T13:34:40.159Z,39.30
2022-08-10T13:36:41.563Z,39.30
2022-08-10T13:39:12.208Z,39.60
2022-08-10T13:41:42.302Z,39.70
2022-08-10T13:44:12.518Z,40.40
2022-08-10T13:46:42.099Z,40.60
2022-08-10T13:49:13.604Z,40.70
2022-08-10T13:51:56.495Z,41.00
2022-08-10T13:54:28.147Z,40.90
2022-08-10T13:56:56.585Z,40.80
2022-08-10T14:00:34.427Z,41.00
2022-08-10T14:02:21.509Z,42.10
2022-08-10T14:04:48.355Z,41.20
2022-08-10T14:07:16.888Z,41.20
2022-08-10T14:09:47.351Z,41.10
2022-08-10T14:12:14.952Z,41.30
2022-08-10T14:14:42.746Z,41.30
2022-08-10T14:17:11.447Z,41.20
2022-08-10T14:19:43.521Z,41.40
2022-08-10T14:22:17.153Z,41.00
2022-08-10T14:24:46.904Z,41.30
2022-08-10T14:27:17.813Z,41.20
2022-08-10T14:29:49.167Z,40.90
2022-08-10T14:32:18.541Z,40.70
2022-08-10T14:36:08.344Z,40.70
2022-08-10T14:37:38.301Z,41.00
2022-08-10T14:40:17.726Z,41.60
2022-08-10T14:43:08.964Z,41.20
2022-08-10T14:45:39.191Z,41.20
2022-08-10T14:48:16.929Z,41.20
2022-08-10T14:50:55.430Z,41.50
2022-08-10T14:53:27.022Z,41.20
2022-08-10T14:56:02.277Z,41.40
2022-08-10T14:58:58.866Z,41.00
2022-08-10T15:02:37.591Z,41.00
2022-08-10T15:04:28.976Z,41.00
2022-08-10T15:07:12.156Z,41.10
2022-08-10T15:10:01.747Z,41.10
2022-08-10T15:12:35.357Z,41.00
2022-08-10T15:15:05.191Z,40.80
2022-08-10T15:17:37.106Z,41.10
2022-08-10T15:20:20.285Z,40.80
2022-08-10T15:22:51.594Z,40.80
2022-08-10T15:25:26.077Z,40.60
2022-08-10T15:28:05.274Z,40.30
2022-08-10T15:30:39.729Z,40.40
2022-08-10T15:34:02.744Z,39.70
2022-08-10T15:36:40.318Z,39.90
2022-08-10T15:40:25.835Z,40.10
2022-08-10T15:42:08.213Z,40.30
2022-08-10T15:44:43.498Z,40.50
2022-08-10T15:47:21.190Z,40.40
2022-08-10T15:49:58.347Z,40.60
2022-08-10T15:52:39.815Z,40.90
2022-08-10T15:55:43.258Z,40.80
2022-08-10T15:58:37.564Z,41.00
2022-08-10T16:02:14.285Z,40.90
2022-08-10T16:04:35.274Z,40.70
2022-08-10T16:07:10.478Z,41.00
2022-08-10T16:10:23.751Z,41.20
2022-08-10T16:12:41.917Z,41.00
2022-08-10T16:15:28.289Z,41.10
2022-08-10T16:18:16.471Z,41.40
2022-08-10T16:20:55.028Z,41.40
2022-08-10T16:23:30.795Z,41.50
2022-08-10T16:26:05.154Z,41.70
2022-08-10T16:29:05.315Z,41.60
2022-08-10T16:31:34.697Z,41.70
2022-08-10T16:34:03.895Z,41.70
2022-08-10T16:36:37.775Z,41.70
2022-08-10T16:39:05.342Z,41.80
2022-08-10T16:42:02.196Z,42.00
2022-08-10T16:44:22.664Z,42.00
2022-08-10T16:46:50.088Z,42.10
2022-08-10T16:49:18.550Z,42.30
2022-08-10T16:51:50.887Z,42.20
2022-08-10T16:54:26.804Z,42.30
2022-08-10T16:57:01.090Z,42.40
2022-08-10T16:59:32.130Z,42.50
2022-08-10T17:02:00.779Z,42.60
2022-08-10T17:04:28.903Z,42.70
2022-08-10T17:07:02.612Z,42.60
2022-08-10T17:09:34.560Z,42.50
2022-08-10T17:12:11.691Z,42.60
2022-08-10T17:14:40.816Z,42.50
2022-08-10T17:17:11.967Z,42.50
2022-08-10T17:19:43.060Z,42.50
2022-08-10T17:22:22.888Z,42.80
2022-08-10T17:25:00.128Z,42.90
2022-08-10T17:28:04.318Z,43.00
2022-08-10T17:30:34.079Z,43.10
2022-08-10T17:33:14.355Z,43.00
2022-08-10T17:35:47.014Z,43.50
2022-08-10T17:38:20.771Z,43.10
2022-08-10T17:40:52.625Z,43.30
2022-08-10T17:43:46.428Z,43.60
2022-08-10T17:46:14.318Z,43.50
2022-08-10T17:48:42.812Z,43.40
2022-08-10T17:51:13.654Z,43.40
2022-08-10T17:53:42.399Z,43.40
2022-08-10T17:56:10.831Z,43.70
2022-08-10T17:58:40.626Z,43.40
2022-08-10T18:01:41.102Z,43.40
2022-08-10T18:04:00.784Z,43.50
2022-08-10T18:06:29.366Z,43.70
2022-08-10T18:09:00.760Z,43.50
2022-08-10T18:11:30.900Z,43.80
2022-08-10T18:14:02.761Z,43.80
2022-08-10T18:16:34.257Z,44.00
2022-08-10T18:19:07.555Z,43.90
2022-08-10T18:21:39.444Z,43.80
2022-08-10T18:24:16.103Z,43.80
2022-08-10T18:26:45.765Z,43.90
2022-08-10T18:29:21.877Z,43.90
2022-08-10T18:31:54.055Z,44.30
2022-08-10T18:34:23.249Z,44.00
2022-08-10T18:36:52.176Z,44.20
2022-08-10T18:39:27.225Z,44.00
2022-08-10T18:42:05.382Z,44.10
2022-08-10T18:44:42.163Z,44.30
2022-08-10T18:47:14.841Z,44.00
2022-08-10T18:49:53.420Z,44.30
2022-08-10T18:52:24.939Z,44.40
2022-08-10T18:54:55.637Z,44.30
2022-08-10T18:57:58.057Z,44.70
2022-08-10T19:00:33.528Z,45.10
2022-08-10T19:03:11.170Z,44.60
2022-08-10T19:06:07.920Z,44.70
2022-08-10T19:08:49.120Z,44.70
2022-08-10T19:11:33.654Z,45.00
2022-08-10T19:14:28.870Z,45.50
2022-08-10T19:17:07.070Z,45.20
2022-08-10T19:20:06.072Z,45.10
2022-08-10T19:22:47.219Z,45.30
2022-08-10T19:26:39.328Z,45.30
2022-08-10T19:29:07.632Z,45.30
2022-08-10T19:31:55.624Z,45.50
2022-08-10T19:34:47.510Z,45.80
2022-08-10T19:38:00.427Z,46.00
2022-08-10T19:40:46.719Z,45.90
2022-08-10T19:43:59.601Z,46.00
2022-08-10T19:46:37.363Z,46.00
2022-08-10T19:49:39.571Z,46.40
2022-08-10T19:52:29.710Z,46.30
2022-08-10T19:55:22.814Z,46.20
2022-08-10T19:58:12.411Z,46.10
2022-08-10T20:00:55.527Z,46.30
2022-08-10T20:03:37.071Z,47.00
2022-08-10T20:06:32.880Z,46.60
2022-08-10T20:09:21.731Z,46.40
2022-08-10T20:11:56.614Z,46.70
2022-08-10T20:14:41.830Z,46.40
2022-08-10T20:17:51.121Z,46.70
2022-08-10T20:20:39.948Z,46.70
2022-08-10T20:23:17.486Z,46.90
2022-08-10T20:26:01.650Z,47.10
2022-08-10T20:28:42.629Z,47.00
2022-08-10T20:31:19.560Z,47.30
2022-08-10T20:34:01.488Z,47.30
2022-08-10T20:36:33.741Z,47.20
2022-08-10T20:39:21.196Z,47.60
2022-08-10T20:42:43.224Z,47.70
2022-08-10T20:45:25.785Z,47.80
2022-08-10T20:48:20.566Z,47.70
2022-08-10T20:50:54.310Z,47.90
2022-08-10T20:53:30.539Z,47.70
2022-08-10T20:56:06.592Z,47.80
2022-08-10T20:59:17.308Z,47.70
2022-08-10T21:02:07.126Z,48.20
2022-08-10T21:04:55.317Z,48.00
2022-08-10T21:08:01.608Z,48.30
2022-08-10T21:10:31.799Z,48.40
2022-08-10T21:13:21.736Z,48.20
2022-08-10T21:16:11.571Z,48.60
2022-08-10T21:18:51.697Z,48.70
2022-08-10T21:24:46.143Z,49.00
2022-08-10T21:25:41.746Z,48.90
2022-08-10T21:27:46.942Z,49.20
2022-08-10T21:30:26.265Z,49.50
2022-08-10T21:33:07.806Z,49.00
2022-08-10T21:36:11.842Z,49.10
2022-08-10T21:38:53.912Z,49.50
2022-08-10T21:41:58.919Z,49.50
2022-08-10T21:45:04.183Z,50.20
2022-08-10T21:48:42.567Z,49.50
2022-08-10T21:52:01.783Z,49.60
2022-08-10T21:55:17.258Z,49.50
2022-08-10T21:58:15.326Z,49.60
2022-08-10T22:01:09.147Z,49.80
2022-08-10T22:03:59.517Z,49.80
2022-08-10T22:06:52.247Z,49.90
2022-08-10T22:09:44.717Z,49.90
2022-08-10T22:12:33.892Z,50.00
2022-08-10T22:15:42.502Z,50.30
2022-08-10T22:18:53.816Z,50.40
2022-08-10T22:22:04.481Z,50.30
2022-08-10T22:25:04.902Z,50.70
2022-08-10T22:28:02.225Z,51.20
2022-08-10T22:34:43.782Z,50.80
2022-08-10T22:38:08.170Z,51.70
2022-08-10T22:40:54.158Z,51.30
2022-08-10T22:43:46.284Z,50.90
2022-08-10T22:46:39.033Z,51.40
2022-08-10T22:49:05.980Z,51.50
2022-08-10T22:51:47.420Z,51.40
2022-08-10T22:54:49.845Z,51.80
2022-08-10T22:57:36.428Z,51.80
2022-08-10T23:00:15.576Z,51.60
2022-08-10T23:03:07.277Z,51.90
2022-08-10T23:05:37.719Z,52.10
2022-08-10T23:08:30.627Z,51.80
2022-08-10T23:11:08.084Z,52.10
2022-08-10T23:13:40.434Z,52.10
2022-08-10T23:16:42.769Z,52.20
2022-08-10T23:19:18.549Z,52.50
2022-08-10T23:22:07.428Z,52.40
2022-08-10T23:24:44.957Z,52.80
2022-08-10T23:27:38.999Z,52.70
2022-08-10T23:30:10.597Z,52.50
2022-08-10T23:32:44.791Z,52.60
2022-08-10T23:36:31.214Z,52.80
2022-08-10T23:38:05.143Z,53.70
2022-08-10T23:40:32.967Z,53.00
2022-08-10T23:43:01.232Z,53.20
2022-08-10T23:45:52.562Z,53.20
2022-08-10T23:48:24.818Z,53.50
2022-08-10T23:50:59.240Z,53.80
2022-08-10T23:53:33.188Z,53.70
2022-08-10T23:56:21.522Z,53.90
2022-08-10T23:58:52.959Z,54.40
